Portada
METAR-TAF:

METAR-TAF

Aeropuertos :

Florianópolis, Santa Catarina, Brasil

Aeropuerto Internacional Hercílio Luz

latitud: 27-40S, longitud: 048-33W, altitud: 5 m

Observación

El informe se hizo hace 6 minutos, a las 14:00 UTC
Viento 9 kt del norte
Temperatura 20°C
Humedad 78%
Presión 1026 hPa
Visibilidad 10 km o más
Cielo nuboso a una altura de 2300 ft

METAR: SBFL 221400Z 36009KT 9999 BKN023 20/16 Q1026

Hora: 11:06 (14:06 UTC)

Pronóstico

El informe se hizo hace 4 horas y 6 minutos, a las 10:00 UTC
Pronóstico válido del 22 a las 12 UTC al 23 a las 12 UTC
Viento 5 kt del norte-noroeste
Visibilidad 10 km o más
Nubes dispersas a una altura de 2500 ft
Evolucionando progresivamente
del 22 a las 12 UTC al 22 a las 14 UTC
Cielo nuboso a una altura de 3000 ft

TAF: SBFL 221000Z 2212/2312 34005KT 9999 SCT025 TX22/2216Z TN15/2309Z BECMG 2212/2214 BKN030 RMK PEB

Observaciones y pronósticos meteorológicos de más de 4000 aeropuertos (mensajes METAR y TAF).

Los puntos amarillos y rojos representan las estaciones disponibles.

Ponga el ratón en el punto deseado para ver el nombre de la estación.

Haga clic para ver las observaciones y los pronósticos meteorológicos.

Para cambiar el mapa : haga clic en los botones verdes con una cruz de color negro para hacer un zoom, en el botón verde con un guión para alejar o en las flechas verdes para mapas adyacentes.


METAR-TAF: